createdAt,value
2018-11-12T00:00:47.040Z,31.87
2018-11-12T00:03:16.346Z,30.25
2018-11-12T00:05:45.403Z,32.67
2018-11-12T00:08:14.586Z,31.25
2018-11-12T00:10:43.700Z,30.95
2018-11-12T00:13:12.841Z,30.25
2018-11-12T00:15:41.922Z,32.67
2018-11-12T00:18:11.048Z,33.05
2018-11-12T00:20:40.485Z,28.80
2018-11-12T00:23:09.561Z,34.13
2018-11-12T00:25:38.783Z,32.00
2018-11-12T00:28:08.298Z,32.00
2018-11-12T00:30:37.323Z,33.95
2018-11-12T00:33:06.402Z,31.12
2018-11-12T00:35:35.773Z,32.67
2018-11-12T00:38:06.021Z,35.10
2018-11-12T00:40:35.087Z,33.05
2018-11-12T00:43:04.211Z,33.10
2018-11-12T00:45:33.546Z,35.25
2018-11-12T00:48:02.809Z,31.17
2018-11-12T00:50:31.981Z,31.93
2018-11-12T00:53:01.202Z,33.95
2018-11-12T00:55:31.137Z,33.05
2018-11-12T00:58:00.212Z,33.00
2018-11-12T01:00:29.343Z,33.58
2018-11-12T01:02:58.592Z,36.20
2018-11-12T01:05:27.888Z,33.63
2018-11-12T01:07:57.036Z,34.30
2018-11-12T01:10:26.177Z,32.53
2018-11-12T01:12:55.121Z,33.33
2018-11-12T01:15:24.302Z,33.20
2018-11-12T01:17:53.521Z,33.10
2018-11-12T01:20:22.785Z,32.98
2018-11-12T01:22:51.883Z,33.33
2018-11-12T01:25:20.972Z,35.63
2018-11-12T01:27:50.350Z,31.87
2018-11-12T01:30:19.638Z,33.58
2018-11-12T01:32:48.761Z,34.20
2018-11-12T01:35:18.617Z,34.33
2018-11-12T01:37:48.067Z,34.25
2018-11-12T01:40:17.416Z,32.95
2018-11-12T01:42:46.730Z,33.80
2018-11-12T01:45:16.984Z,34.60
2018-11-12T01:47:47.447Z,33.83
2018-11-12T01:50:17.185Z,32.33
2018-11-12T01:52:47.200Z,33.95
2018-11-12T01:55:17.450Z,34.27
2018-11-12T01:57:46.825Z,31.77
2018-11-12T02:00:20.472Z,33.70
2018-11-12T02:02:50.654Z,34.18
2018-11-12T02:05:20.089Z,33.38
2018-11-12T02:07:49.445Z,33.92
2018-11-12T02:10:19.263Z,33.33
2018-11-12T02:12:49.069Z,33.58
2018-11-12T02:15:20.278Z,36.10
2018-11-12T02:17:49.980Z,32.88
2018-11-12T02:20:20.408Z,32.50
2018-11-12T02:22:56.214Z,34.03
2018-11-12T02:25:25.312Z,33.83
2018-11-12T02:27:54.711Z,35.15
2018-11-12T02:30:29.183Z,33.63
2018-11-12T02:32:58.311Z,32.83
2018-11-12T02:35:28.204Z,32.48
2018-11-12T02:37:57.332Z,32.53
2018-11-12T02:40:26.379Z,33.70
2018-11-12T02:42:55.481Z,32.95
2018-11-12T02:45:24.634Z,33.45
2018-11-12T02:47:53.912Z,31.25
2018-11-12T02:50:22.884Z,34.25
2018-11-12T02:52:52.212Z,30.32
2018-11-12T02:55:21.375Z,33.15
2018-11-12T02:57:50.575Z,31.48
2018-11-12T03:00:22.990Z,31.85
2018-11-12T03:02:52.252Z,31.77
2018-11-12T03:05:21.256Z,30.95
2018-11-12T03:07:50.474Z,32.10
2018-11-12T03:10:21.711Z,33.10
2018-11-12T03:12:51.241Z,34.15
2018-11-12T03:15:21.010Z,31.60
2018-11-12T03:17:50.889Z,33.35
2018-11-12T03:20:21.415Z,34.70
2018-11-12T03:22:50.632Z,31.73
2018-11-12T03:25:20.843Z,32.38
2018-11-12T03:27:50.430Z,31.12
2018-11-12T03:30:20.985Z,31.75
2018-11-12T03:32:50.674Z,33.58
2018-11-12T03:35:20.355Z,32.20
2018-11-12T03:37:50.523Z,33.60
2018-11-12T03:40:21.043Z,31.82
2018-11-12T03:42:50.811Z,31.17
2018-11-12T03:45:22.134Z,32.58
2018-11-12T03:47:51.423Z,32.48
2018-11-12T03:50:21.649Z,32.42
2018-11-12T03:52:51.006Z,28.55
2018-11-12T03:55:21.312Z,31.73
2018-11-12T03:57:50.445Z,32.98
2018-11-12T04:00:21.728Z,33.15
2018-11-12T04:02:50.719Z,33.33
2018-11-12T04:05:20.091Z,32.53
2018-11-12T04:07:49.274Z,30.80
2018-11-12T04:10:19.741Z,34.35
2018-11-12T04:12:49.050Z,31.15
2018-11-12T04:15:19.570Z,32.85
2018-11-12T04:17:49.179Z,30.65
2018-11-12T04:20:19.612Z,30.72
2018-11-12T04:22:54.461Z,33.20
2018-11-12T04:25:23.863Z,32.20
2018-11-12T04:27:54.775Z,33.15
2018-11-12T04:30:23.986Z,32.63
2018-11-12T04:32:53.269Z,31.70
2018-11-12T04:35:26.949Z,31.55
2018-11-12T04:37:56.825Z,31.48
2018-11-12T04:40:25.980Z,30.68
2018-11-12T04:42:55.252Z,30.88
2018-11-12T04:45:25.072Z,32.30
2018-11-12T04:47:54.640Z,30.15
2018-11-12T04:50:25.025Z,29.60
2018-11-12T04:52:54.686Z,30.97
2018-11-12T04:55:24.482Z,31.25
2018-11-12T04:57:53.687Z,34.83
2018-11-12T05:00:24.039Z,32.70
2018-11-12T05:02:53.312Z,32.23
2018-11-12T05:05:23.635Z,33.18
2018-11-12T05:07:52.993Z,32.75
2018-11-12T05:10:23.245Z,31.45
2018-11-12T05:12:52.970Z,32.60
2018-11-12T05:15:23.634Z,30.45
2018-11-12T05:17:53.270Z,33.70
2018-11-12T05:20:25.254Z,32.65
2018-11-12T05:22:54.761Z,31.68
2018-11-12T05:25:23.942Z,33.95
2018-11-12T05:27:53.509Z,32.17
2018-11-12T05:30:25.585Z,33.78
2018-11-12T05:32:55.245Z,29.98
2018-11-12T05:35:25.666Z,33.18
2018-11-12T05:37:55.046Z,30.80
2018-11-12T05:40:28.569Z,30.68
2018-11-12T05:42:58.280Z,31.30
2018-11-12T05:45:28.605Z,29.90
2018-11-12T05:47:58.031Z,31.33
2018-11-12T05:50:28.681Z,30.23
2018-11-12T05:53:00.260Z,29.70
2018-11-12T05:55:30.252Z,31.82
2018-11-12T05:57:59.683Z,30.88
2018-11-12T06:00:34.132Z,30.48
2018-11-12T06:03:03.400Z,32.70
2018-11-12T06:05:33.314Z,30.37
2018-11-12T06:08:02.888Z,27.52
2018-11-12T06:10:32.906Z,30.80
2018-11-12T06:13:02.077Z,30.77
2018-11-12T06:15:31.513Z,32.10
2018-11-12T06:18:00.638Z,30.25
2018-11-12T06:20:32.604Z,28.23
2018-11-12T06:23:01.804Z,30.37
2018-11-12T06:25:34.178Z,29.77
2018-11-12T06:28:03.512Z,28.83
2018-11-12T06:30:34.033Z,30.55
2018-11-12T06:33:03.411Z,29.60
2018-11-12T06:35:33.937Z,30.90
2018-11-12T06:38:03.328Z,29.77
2018-11-12T06:40:32.760Z,27.37
2018-11-12T06:43:02.115Z,28.77
2018-11-12T06:45:32.755Z,28.10
2018-11-12T06:48:02.899Z,27.87
2018-11-12T06:50:34.144Z,30.30
2018-11-12T06:53:06.985Z,27.85
2018-11-12T06:55:42.348Z,29.20
2018-11-12T06:58:14.013Z,31.10
2018-11-12T07:00:43.332Z,29.35
2018-11-12T07:03:12.414Z,28.85
2018-11-12T07:05:41.913Z,29.63
2018-11-12T07:08:11.101Z,28.20
2018-11-12T07:10:41.556Z,28.77
2018-11-12T07:13:29.228Z,28.55
2018-11-12T07:16:18.120Z,29.92
2018-11-12T07:19:04.366Z,29.80
2018-11-12T07:21:33.429Z,30.17
2018-11-12T07:24:02.579Z,26.93
2018-11-12T07:26:31.843Z,35.15
2018-11-12T07:29:02.811Z,46.63
2018-11-12T07:31:32.679Z,46.05
2018-11-12T07:34:01.879Z,47.48
2018-11-12T07:36:31.031Z,51.15
2018-11-12T07:39:00.400Z,47.98
2018-11-12T07:41:29.546Z,50.50
2018-11-12T07:44:05.627Z,54.42
2018-11-12T07:46:34.785Z,48.90
2018-11-12T07:49:03.952Z,46.60
2018-11-12T07:51:33.233Z,53.13
2018-11-12T07:54:02.495Z,47.20
2018-11-12T07:56:31.840Z,48.13
2018-11-12T07:59:00.954Z,46.98
2018-11-12T08:01:30.115Z,49.05
2018-11-12T08:03:59.310Z,42.70
2018-11-12T08:06:28.443Z,46.02
2018-11-12T08:08:57.759Z,47.03
2018-11-12T08:11:26.964Z,48.25
2018-11-12T08:13:56.192Z,45.90
2018-11-12T08:16:25.634Z,47.53
2018-11-12T08:18:54.602Z,46.08
2018-11-12T08:21:23.932Z,47.55
2018-11-12T08:23:53.499Z,43.52
2018-11-12T08:26:22.611Z,41.33
2018-11-12T08:28:51.908Z,41.90
2018-11-12T08:31:20.926Z,40.35
2018-11-12T08:33:50.150Z,37.33
2018-11-12T08:36:19.351Z,35.63
2018-11-12T08:38:48.624Z,36.17
2018-11-12T08:41:17.749Z,33.38
2018-11-12T08:43:46.802Z,33.30
2018-11-12T08:46:16.081Z,31.95
2018-11-12T08:48:45.357Z,31.23
2018-11-12T08:51:14.514Z,33.45
2018-11-12T08:53:43.774Z,29.40
2018-11-12T08:56:12.999Z,31.97
2018-11-12T08:58:43.417Z,25.97
2018-11-12T09:01:12.561Z,31.82
2018-11-12T09:03:41.612Z,32.55
2018-11-12T09:06:10.930Z,30.82
2018-11-12T09:20:33.408Z,31.80
2018-11-12T09:23:02.571Z,33.15
2018-11-12T09:25:31.690Z,31.62
2018-11-12T09:28:00.924Z,30.82
2018-11-12T09:30:30.563Z,29.32
2018-11-12T09:32:59.467Z,31.97
2018-11-12T09:35:29.986Z,29.27
2018-11-12T09:38:00.228Z,30.08
2018-11-12T09:40:30.942Z,31.05
2018-11-12T09:43:00.221Z,28.77
2018-11-12T09:45:29.463Z,28.73
2018-11-12T09:47:58.934Z,30.08
2018-11-12T09:50:28.425Z,27.87
2018-11-12T09:52:58.600Z,27.27
2018-11-12T09:55:28.917Z,26.12
2018-11-12T09:58:01.432Z,22.93
2018-11-12T10:00:30.685Z,23.15
2018-11-12T10:03:00.800Z,21.77
2018-11-12T10:05:30.130Z,26.40
2018-11-12T10:08:05.193Z,27.22
2018-11-12T10:10:36.702Z,20.57
2018-11-12T10:13:07.011Z,24.27
2018-11-12T10:15:36.864Z,22.73
2018-11-12T10:18:06.207Z,28.23
2018-11-12T10:20:33.393Z,21.77
2018-11-12T10:23:02.486Z,19.32
2018-11-12T10:25:32.597Z,17.15
2018-11-12T10:28:02.051Z,18.87
2018-11-12T10:30:31.330Z,17.60
2018-11-12T10:33:00.414Z,20.37
2018-11-12T10:35:29.646Z,27.90
2018-11-12T10:37:58.776Z,21.82
2018-11-12T10:40:27.911Z,21.42
2018-11-12T10:42:57.129Z,19.50
2018-11-12T10:45:27.853Z,16.15
2018-11-12T10:47:57.026Z,22.15
2018-11-12T10:50:26.138Z,20.23
2018-11-12T10:52:55.234Z,18.17
2018-11-12T10:55:25.409Z,29.55
2018-11-12T10:57:54.679Z,23.50
2018-11-12T11:00:32.683Z,21.17
2018-11-12T11:03:07.734Z,21.95
2018-11-12T11:05:37.869Z,18.27
2018-11-12T11:08:07.047Z,19.23
2018-11-12T11:10:36.174Z,18.70
2018-11-12T11:13:05.857Z,19.65
2018-11-12T11:15:36.581Z,16.97
2018-11-12T11:18:05.803Z,18.23
2018-11-12T11:20:35.274Z,18.87
2018-11-12T11:23:04.261Z,16.70
2018-11-12T13:09:27.505Z,19.02
2018-11-12T13:11:57.064Z,16.85
2018-11-12T13:14:26.229Z,19.73
2018-11-12T13:16:55.260Z,20.90
2018-11-12T13:19:24.607Z,21.30
2018-11-12T13:21:53.721Z,17.90
2018-11-12T13:24:23.075Z,22.82
2018-11-12T13:26:52.375Z,24.07
2018-11-12T13:29:21.992Z,21.27
2018-11-12T13:31:51.188Z,19.67
2018-11-12T13:34:20.434Z,20.70
2018-11-12T13:36:49.710Z,19.00
2018-11-12T13:39:19.608Z,19.10
2018-11-12T13:41:52.573Z,21.70
2018-11-12T13:44:23.743Z,21.95
2018-11-12T13:46:59.256Z,19.35
2018-11-12T13:49:34.176Z,22.20
2018-11-12T13:52:03.832Z,20.97
2018-11-12T13:54:33.977Z,18.73
2018-11-12T13:57:03.473Z,20.80
2018-11-12T13:59:32.523Z,21.55
2018-11-12T14:02:01.677Z,28.12
2018-11-12T14:04:31.538Z,23.00
2018-11-12T14:07:01.718Z,22.50
2018-11-12T14:09:30.569Z,21.00
2018-11-12T14:11:59.776Z,22.42
2018-11-12T14:14:28.859Z,22.05
2018-11-12T14:16:58.709Z,20.72
2018-11-12T14:19:27.911Z,20.62
2018-11-12T14:21:57.139Z,21.50
2018-11-12T14:24:26.458Z,21.82
2018-11-12T14:26:55.496Z,20.43
2018-11-12T14:29:24.770Z,24.35
2018-11-12T14:31:53.933Z,19.15
2018-11-12T14:34:23.712Z,22.27
2018-11-12T14:36:53.255Z,21.57
2018-11-12T14:39:22.375Z,19.67
2018-11-12T14:41:51.575Z,20.27
2018-11-12T14:44:21.076Z,17.92
2018-11-12T14:46:50.182Z,20.30
2018-11-12T14:49:19.864Z,15.53
2018-11-12T14:51:49.004Z,15.58
2018-11-12T14:54:19.863Z,16.70
2018-11-12T14:56:49.525Z,14.98
2018-11-12T14:59:18.961Z,15.88
2018-11-12T15:01:48.086Z,16.90
2018-11-12T15:04:17.122Z,15.90
2018-11-12T15:06:48.880Z,15.90
2018-11-12T15:09:20.961Z,14.13
2018-11-12T15:11:50.237Z,16.27
2018-11-12T15:14:19.259Z,16.87
2018-11-12T15:16:48.293Z,17.42
2018-11-12T15:19:17.385Z,15.23
2018-11-12T15:21:46.998Z,14.93
2018-11-12T15:24:16.768Z,13.28
2018-11-12T15:26:45.949Z,17.40
2018-11-12T15:29:15.232Z,15.25
2018-11-12T15:31:44.703Z,15.35
2018-11-12T15:34:13.739Z,16.65
2018-11-12T15:36:42.928Z,13.20
2018-11-12T15:39:12.250Z,16.12
2018-11-12T15:41:41.344Z,14.40
2018-11-12T15:44:10.462Z,15.05
2018-11-12T15:46:40.240Z,15.13
2018-11-12T15:49:10.028Z,14.28
2018-11-12T15:51:41.296Z,17.32
2018-11-12T15:54:11.837Z,14.50
2018-11-12T15:56:42.117Z,16.80
2018-11-12T15:59:11.714Z,15.80
2018-11-12T16:01:40.864Z,15.40
2018-11-12T16:04:10.178Z,16.07
2018-11-12T16:06:39.369Z,19.73
2018-11-12T16:09:10.068Z,18.98
2018-11-12T16:11:41.975Z,19.75
2018-11-12T16:14:11.129Z,18.55
2018-11-12T16:16:40.307Z,17.10
2018-11-12T16:19:10.414Z,18.65
2018-11-12T16:21:39.668Z,17.98
2018-11-12T16:24:08.776Z,18.00
2018-11-12T16:26:38.071Z,19.92
2018-11-12T16:29:07.185Z,17.92
2018-11-12T16:31:36.521Z,18.12
2018-11-12T16:34:05.643Z,17.62
2018-11-12T16:36:35.903Z,24.30
2018-11-12T16:39:07.186Z,20.20
2018-11-12T16:41:36.112Z,18.90
2018-11-12T16:44:05.355Z,17.92
2018-11-12T16:46:34.709Z,20.88
2018-11-12T16:49:04.013Z,19.32
2018-11-12T16:51:33.075Z,18.35
2018-11-12T16:54:02.309Z,18.02
2018-11-12T16:56:32.084Z,16.40
2018-11-12T16:59:01.452Z,19.48
2018-11-12T17:01:30.802Z,18.07
2018-11-12T17:03:59.843Z,18.10
2018-11-12T17:06:29.513Z,20.32
2018-11-12T17:09:00.171Z,20.80
2018-11-12T17:11:29.568Z,18.62
2018-11-12T17:13:58.893Z,18.15
2018-11-12T17:16:28.316Z,18.48
2018-11-12T17:18:57.449Z,17.30
2018-11-12T17:21:26.676Z,20.23
2018-11-12T17:23:55.937Z,19.52
2018-11-12T17:26:25.193Z,21.70
2018-11-12T17:28:54.347Z,18.40
2018-11-12T17:31:23.641Z,19.82
2018-11-12T17:33:52.834Z,19.05
2018-11-12T17:36:22.143Z,17.75
2018-11-12T17:38:51.272Z,18.48
2018-11-12T17:41:20.719Z,20.85
2018-11-12T17:43:49.763Z,20.08
2018-11-12T17:46:19.965Z,20.15
2018-11-12T17:48:49.250Z,19.55
2018-11-12T17:51:18.391Z,21.68
2018-11-12T17:53:47.534Z,22.05
2018-11-12T17:56:16.638Z,21.87
2018-11-12T17:58:45.940Z,25.50
2018-11-12T18:01:15.320Z,20.50
2018-11-12T18:03:44.418Z,26.23
2018-11-12T18:06:13.716Z,24.05
2018-11-12T18:08:42.813Z,23.87
2018-11-12T18:11:12.103Z,24.80
2018-11-12T18:13:41.470Z,24.18
2018-11-12T18:16:10.728Z,22.27
2018-11-12T18:18:39.803Z,23.32
2018-11-12T18:21:09.262Z,21.75
2018-11-12T18:23:38.458Z,25.50
2018-11-12T18:26:11.781Z,22.37
2018-11-12T18:28:41.994Z,23.83
2018-11-12T18:31:15.647Z,24.35
2018-11-12T18:33:46.681Z,24.72
2018-11-12T18:36:22.621Z,26.35
2018-11-12T18:38:58.697Z,25.60
2018-11-12T18:41:36.140Z,25.27
2018-11-12T18:44:06.202Z,25.48
2018-11-12T18:46:35.396Z,28.35
2018-11-12T18:49:04.757Z,28.60
2018-11-12T18:51:37.335Z,27.98
2018-11-12T18:54:11.235Z,30.40
2018-11-12T18:56:40.504Z,28.87
2018-11-12T18:59:11.302Z,32.33
2018-11-12T19:01:42.002Z,32.98
2018-11-12T19:04:11.031Z,31.00
2018-11-12T19:06:40.093Z,31.77
2018-11-12T19:09:09.943Z,27.50
2018-11-12T19:11:39.045Z,28.27
2018-11-12T19:14:08.477Z,31.52
2018-11-12T19:16:37.678Z,30.80
2018-11-12T19:19:06.785Z,33.78
2018-11-12T19:21:36.032Z,35.10
2018-11-12T19:24:05.304Z,29.10
2018-11-12T19:26:34.332Z,31.10
2018-11-12T19:29:03.477Z,32.17
2018-11-12T19:31:32.635Z,32.17
2018-11-12T19:34:01.603Z,31.57
2018-11-12T19:36:30.595Z,32.53
2018-11-12T19:38:59.725Z,32.03
2018-11-12T19:41:28.933Z,31.33
2018-11-12T19:43:58.162Z,27.30
2018-11-12T19:46:27.419Z,31.73
2018-11-12T19:48:56.726Z,29.45
2018-11-12T19:51:50.333Z,29.37
2018-11-12T19:54:19.462Z,30.20
2018-11-12T19:56:48.488Z,29.20
2018-11-12T19:59:17.808Z,32.28
2018-11-12T20:01:47.148Z,35.70
2018-11-12T20:04:16.267Z,30.15
2018-11-12T20:06:45.569Z,29.52
2018-11-12T20:09:14.806Z,30.90
2018-11-12T20:11:44.139Z,29.37
2018-11-12T20:14:13.213Z,32.08
2018-11-12T20:16:42.447Z,28.10
2018-11-12T20:19:11.660Z,29.37
2018-11-12T20:21:40.910Z,26.15
2018-11-12T20:24:10.139Z,28.50
2018-11-12T20:26:39.354Z,26.48
2018-11-12T20:29:08.568Z,28.10
2018-11-12T20:31:37.924Z,25.32
2018-11-12T20:34:07.095Z,26.82
2018-11-12T20:36:36.226Z,26.23
2018-11-12T20:39:06.957Z,25.82
2018-11-12T20:41:36.180Z,25.62
2018-11-12T20:44:05.692Z,24.10
2018-11-12T20:46:34.652Z,26.60
2018-11-12T20:49:03.803Z,27.70
2018-11-12T20:51:33.149Z,26.42
2018-11-12T20:54:02.255Z,25.10
2018-11-12T20:56:31.210Z,28.87
2018-11-12T20:59:00.235Z,28.07
2018-11-12T21:01:29.304Z,29.20
2018-11-12T21:03:58.774Z,30.88
2018-11-12T21:06:27.918Z,29.23
2018-11-12T21:08:57.185Z,32.83
2018-11-12T21:11:26.441Z,28.50
2018-11-12T21:13:55.517Z,30.77
2018-11-12T21:16:24.716Z,30.12
2018-11-12T21:18:53.836Z,33.60
2018-11-12T21:21:23.163Z,34.03
2018-11-12T21:23:52.410Z,34.00
2018-11-12T21:26:21.467Z,34.27
2018-11-12T21:28:51.081Z,35.00
2018-11-12T21:31:20.328Z,32.63
2018-11-12T21:33:49.540Z,34.18
2018-11-12T21:36:18.738Z,32.50
2018-11-12T21:38:47.945Z,32.08
2018-11-12T21:41:17.134Z,33.75
2018-11-12T21:43:46.251Z,36.70
2018-11-12T21:46:15.515Z,33.80
2018-11-12T21:48:44.745Z,36.33
2018-11-12T21:51:13.915Z,36.70
2018-11-12T21:53:43.129Z,36.17
2018-11-12T21:56:12.354Z,38.92
2018-11-12T21:58:41.757Z,37.98
2018-11-12T22:01:10.933Z,36.10
2018-11-12T22:03:40.195Z,40.98
2018-11-12T22:06:09.514Z,41.33
2018-11-12T22:08:38.978Z,35.17
2018-11-12T22:11:08.130Z,36.68
2018-11-12T22:13:37.424Z,36.42
2018-11-12T22:16:07.112Z,39.70
2018-11-12T22:18:36.519Z,35.83
2018-11-12T22:21:05.609Z,43.38
2018-11-12T22:23:34.801Z,55.80
2018-11-12T22:26:03.860Z,52.48
2018-11-12T22:28:33.440Z,55.45
2018-11-12T22:31:02.628Z,56.58
2018-11-12T22:33:31.837Z,55.17
2018-11-12T22:36:00.903Z,50.48
2018-11-12T22:38:29.891Z,48.52
2018-11-12T22:40:59.315Z,45.88
2018-11-12T22:43:28.539Z,41.60
2018-11-12T22:45:57.689Z,38.70
2018-11-12T22:48:27.012Z,42.93
2018-11-12T22:50:56.191Z,37.58
2018-11-12T22:53:25.512Z,35.10
2018-11-12T22:55:54.703Z,39.65
2018-11-12T22:58:24.093Z,37.42
2018-11-12T23:00:53.302Z,40.20
2018-11-12T23:03:22.276Z,35.75
2018-11-12T23:05:55.534Z,34.38
2018-11-12T23:08:25.070Z,37.50
2018-11-12T23:10:55.808Z,37.23
2018-11-12T23:13:25.028Z,34.40
2018-11-12T23:15:54.179Z,35.90
2018-11-12T23:18:23.365Z,38.65
2018-11-12T23:20:52.783Z,41.05
2018-11-12T23:23:21.725Z,39.85
2018-11-12T23:25:50.695Z,43.70
2018-11-12T23:28:19.910Z,41.33
2018-11-12T23:30:49.095Z,44.33
2018-11-12T23:33:18.179Z,42.58
2018-11-12T23:35:48.229Z,38.40
2018-11-12T23:38:17.389Z,42.25
2018-11-12T23:40:46.488Z,41.92
2018-11-12T23:43:15.702Z,44.18
2018-11-12T23:45:44.990Z,52.62
2018-11-12T23:48:14.174Z,52.40
2018-11-12T23:50:43.293Z,57.62
2018-11-12T23:53:12.582Z,56.13
2018-11-12T23:55:41.841Z,59.48
2018-11-12T23:58:11.000Z,57.58
